sensor_id;sensor_type;location;lat;lon;timestamp;P1;durP1;ratioP1;P2;durP2;ratioP2
39612;SDS011;25303;48.896;13.342;2022-07-26T00:01:18;6.00;;;4.30;;
39612;SDS011;25303;48.896;13.342;2022-07-26T00:04:03;5.47;;;3.85;;
39612;SDS011;25303;48.896;13.342;2022-07-26T00:06:46;6.03;;;4.20;;
39612;SDS011;25303;48.896;13.342;2022-07-26T00:09:31;8.48;;;4.45;;
39612;SDS011;25303;48.896;13.342;2022-07-26T00:12:15;8.18;;;4.88;;
39612;SDS011;25303;48.896;13.342;2022-07-26T00:14:58;8.10;;;4.80;;
39612;SDS011;25303;48.896;13.342;2022-07-26T00:17:41;7.60;;;5.40;;
39612;SDS011;25303;48.896;13.342;2022-07-26T00:20:24;7.13;;;5.57;;
39612;SDS011;25303;48.896;13.342;2022-07-26T00:23:09;8.18;;;6.35;;
39612;SDS011;25303;48.896;13.342;2022-07-26T00:25:53;7.90;;;5.32;;
39612;SDS011;25303;48.896;13.342;2022-07-26T00:28:36;8.35;;;5.20;;
39612;SDS011;25303;48.896;13.342;2022-07-26T00:31:21;9.70;;;7.05;;
39612;SDS011;25303;48.896;13.342;2022-07-26T00:34:04;6.53;;;5.30;;
39612;SDS011;25303;48.896;13.342;2022-07-26T00:36:47;9.23;;;6.40;;
39612;SDS011;25303;48.896;13.342;2022-07-26T00:39:30;8.43;;;6.80;;
39612;SDS011;25303;48.896;13.342;2022-07-26T00:42:15;12.23;;;7.28;;
39612;SDS011;25303;48.896;13.342;2022-07-26T00:44:58;7.28;;;6.10;;
39612;SDS011;25303;48.896;13.342;2022-07-26T00:47:41;7.82;;;6.72;;
39612;SDS011;25303;48.896;13.342;2022-07-26T00:50:25;8.30;;;6.07;;
39612;SDS011;25303;48.896;13.342;2022-07-26T00:53:08;8.30;;;6.65;;
39612;SDS011;25303;48.896;13.342;2022-07-26T00:55:51;12.00;;;6.88;;
39612;SDS011;25303;48.896;13.342;2022-07-26T00:58:35;7.50;;;5.75;;
39612;SDS011;25303;48.896;13.342;2022-07-26T01:01:19;7.63;;;6.53;;
39612;SDS011;25303;48.896;13.342;2022-07-26T01:04:02;7.60;;;5.80;;
39612;SDS011;25303;48.896;13.342;2022-07-26T01:06:46;10.27;;;5.63;;
39612;SDS011;25303;48.896;13.342;2022-07-26T01:09:30;7.85;;;5.28;;
39612;SDS011;25303;48.896;13.342;2022-07-26T01:12:14;7.93;;;5.93;;
39612;SDS011;25303;48.896;13.342;2022-07-26T01:14:59;7.43;;;5.50;;
39612;SDS011;25303;48.896;13.342;2022-07-26T01:17:43;8.70;;;5.95;;
39612;SDS011;25303;48.896;13.342;2022-07-26T01:20:27;8.93;;;5.22;;
39612;SDS011;25303;48.896;13.342;2022-07-26T01:23:12;6.80;;;5.25;;
39612;SDS011;25303;48.896;13.342;2022-07-26T01:28:40;5.35;;;4.57;;
39612;SDS011;25303;48.896;13.342;2022-07-26T01:31:25;5.90;;;5.10;;
39612;SDS011;25303;48.896;13.342;2022-07-26T01:34:08;8.70;;;4.65;;
39612;SDS011;25303;48.896;13.342;2022-07-26T01:36:52;6.43;;;4.70;;
39612;SDS011;25303;48.896;13.342;2022-07-26T01:39:38;8.63;;;5.82;;
39612;SDS011;25303;48.896;13.342;2022-07-26T01:42:21;7.38;;;5.25;;
39612;SDS011;25303;48.896;13.342;2022-07-26T01:45:04;5.55;;;4.72;;
39612;SDS011;25303;48.896;13.342;2022-07-26T01:47:48;6.82;;;4.97;;
39612;SDS011;25303;48.896;13.342;2022-07-26T01:50:31;6.55;;;4.80;;
39612;SDS011;25303;48.896;13.342;2022-07-26T01:53:14;6.15;;;4.30;;
39612;SDS011;25303;48.896;13.342;2022-07-26T01:55:58;7.07;;;4.80;;
39612;SDS011;25303;48.896;13.342;2022-07-26T01:58:41;8.43;;;6.15;;
39612;SDS011;25303;48.896;13.342;2022-07-26T02:01:25;6.53;;;4.68;;
39612;SDS011;25303;48.896;13.342;2022-07-26T02:04:20;6.50;;;4.78;;
39612;SDS011;25303;48.896;13.342;2022-07-26T02:07:20;6.30;;;4.68;;
39612;SDS011;25303;48.896;13.342;2022-07-26T02:10:03;5.55;;;4.50;;
39612;SDS011;25303;48.896;13.342;2022-07-26T02:12:48;6.23;;;4.80;;
39612;SDS011;25303;48.896;13.342;2022-07-26T02:15:31;5.43;;;4.55;;
39612;SDS011;25303;48.896;13.342;2022-07-26T02:18:14;7.82;;;4.80;;
39612;SDS011;25303;48.896;13.342;2022-07-26T02:20:57;5.65;;;4.32;;
39612;SDS011;25303;48.896;13.342;2022-07-26T02:23:41;6.50;;;4.65;;
39612;SDS011;25303;48.896;13.342;2022-07-26T02:26:24;8.55;;;5.85;;
39612;SDS011;25303;48.896;13.342;2022-07-26T02:29:08;6.05;;;4.40;;
39612;SDS011;25303;48.896;13.342;2022-07-26T02:31:52;6.38;;;4.68;;
39612;SDS011;25303;48.896;13.342;2022-07-26T02:34:35;6.07;;;4.72;;
39612;SDS011;25303;48.896;13.342;2022-07-26T02:37:18;5.72;;;4.72;;
39612;SDS011;25303;48.896;13.342;2022-07-26T02:40:01;5.63;;;4.60;;
39612;SDS011;25303;48.896;13.342;2022-07-26T02:42:45;5.50;;;4.43;;
39612;SDS011;25303;48.896;13.342;2022-07-26T02:45:29;7.32;;;4.30;;
39612;SDS011;25303;48.896;13.342;2022-07-26T02:48:12;6.53;;;5.05;;
39612;SDS011;25303;48.896;13.342;2022-07-26T02:50:55;5.35;;;4.32;;
39612;SDS011;25303;48.896;13.342;2022-07-26T02:53:38;5.45;;;4.00;;
39612;SDS011;25303;48.896;13.342;2022-07-26T02:56:21;4.78;;;3.65;;
39612;SDS011;25303;48.896;13.342;2022-07-26T02:59:05;6.00;;;3.70;;
39612;SDS011;25303;48.896;13.342;2022-07-26T03:01:50;5.32;;;3.63;;
39612;SDS011;25303;48.896;13.342;2022-07-26T03:04:33;6.07;;;3.95;;
39612;SDS011;25303;48.896;13.342;2022-07-26T03:07:16;5.38;;;4.07;;
39612;SDS011;25303;48.896;13.342;2022-07-26T03:09:59;5.28;;;3.95;;
39612;SDS011;25303;48.896;13.342;2022-07-26T03:12:42;5.78;;;4.00;;
39612;SDS011;25303;48.896;13.342;2022-07-26T03:15:25;6.22;;;4.30;;
39612;SDS011;25303;48.896;13.342;2022-07-26T03:18:10;5.60;;;4.28;;
39612;SDS011;25303;48.896;13.342;2022-07-26T03:20:53;5.35;;;3.88;;
39612;SDS011;25303;48.896;13.342;2022-07-26T03:23:36;4.53;;;3.75;;
39612;SDS011;25303;48.896;13.342;2022-07-26T03:26:19;4.60;;;3.65;;
39612;SDS011;25303;48.896;13.342;2022-07-26T03:29:02;4.32;;;3.55;;
39612;SDS011;25303;48.896;13.342;2022-07-26T03:31:46;5.55;;;3.72;;
39612;SDS011;25303;48.896;13.342;2022-07-26T03:34:31;5.47;;;3.63;;
39612;SDS011;25303;48.896;13.342;2022-07-26T03:37:14;4.72;;;3.90;;
39612;SDS011;25303;48.896;13.342;2022-07-26T03:39:58;6.32;;;4.07;;
39612;SDS011;25303;48.896;13.342;2022-07-26T03:42:41;5.65;;;3.78;;
39612;SDS011;25303;48.896;13.342;2022-07-26T03:45:24;6.22;;;3.83;;
39612;SDS011;25303;48.896;13.342;2022-07-26T03:48:07;5.50;;;3.50;;
39612;SDS011;25303;48.896;13.342;2022-07-26T03:50:51;6.95;;;4.05;;
39612;SDS011;25303;48.896;13.342;2022-07-26T03:53:34;4.65;;;3.70;;
39612;SDS011;25303;48.896;13.342;2022-07-26T03:56:17;5.00;;;3.72;;
39612;SDS011;25303;48.896;13.342;2022-07-26T03:59:15;5.13;;;3.83;;
39612;SDS011;25303;48.896;13.342;2022-07-26T04:01:59;4.25;;;3.53;;
39612;SDS011;25303;48.896;13.342;2022-07-26T04:04:42;4.75;;;3.63;;
39612;SDS011;25303;48.896;13.342;2022-07-26T04:07:28;4.35;;;3.58;;
39612;SDS011;25303;48.896;13.342;2022-07-26T04:10:11;4.13;;;3.05;;
39612;SDS011;25303;48.896;13.342;2022-07-26T04:12:58;5.05;;;3.30;;
39612;SDS011;25303;48.896;13.342;2022-07-26T04:15:41;4.22;;;3.40;;
39612;SDS011;25303;48.896;13.342;2022-07-26T04:18:24;4.40;;;3.45;;
39612;SDS011;25303;48.896;13.342;2022-07-26T04:21:07;6.93;;;3.60;;
39612;SDS011;25303;48.896;13.342;2022-07-26T04:23:52;6.47;;;3.90;;
39612;SDS011;25303;48.896;13.342;2022-07-26T04:26:35;6.30;;;4.30;;
39612;SDS011;25303;48.896;13.342;2022-07-26T04:29:18;5.30;;;4.07;;
39612;SDS011;25303;48.896;13.342;2022-07-26T04:32:01;5.57;;;3.60;;
39612;SDS011;25303;48.896;13.342;2022-07-26T04:34:44;5.35;;;3.70;;
39612;SDS011;25303;48.896;13.342;2022-07-26T04:37:27;5.30;;;3.60;;
39612;SDS011;25303;48.896;13.342;2022-07-26T04:40:16;4.70;;;3.40;;
39612;SDS011;25303;48.896;13.342;2022-07-26T04:43:03;4.85;;;3.42;;
39612;SDS011;25303;48.896;13.342;2022-07-26T04:45:49;6.30;;;3.70;;
39612;SDS011;25303;48.896;13.342;2022-07-26T04:48:32;4.88;;;3.45;;
39612;SDS011;25303;48.896;13.342;2022-07-26T04:51:15;7.40;;;3.60;;
39612;SDS011;25303;48.896;13.342;2022-07-26T04:53:58;7.15;;;4.70;;
39612;SDS011;25303;48.896;13.342;2022-07-26T04:56:43;4.75;;;3.67;;
39612;SDS011;25303;48.896;13.342;2022-07-26T04:59:26;6.60;;;3.55;;
39612;SDS011;25303;48.896;13.342;2022-07-26T05:02:13;5.60;;;3.42;;
39612;SDS011;25303;48.896;13.342;2022-07-26T05:04:56;4.15;;;2.95;;
39612;SDS011;25303;48.896;13.342;2022-07-26T05:07:40;4.20;;;2.65;;
39612;SDS011;25303;48.896;13.342;2022-07-26T05:10:27;4.20;;;3.10;;
39612;SDS011;25303;48.896;13.342;2022-07-26T05:13:13;3.78;;;2.97;;
39612;SDS011;25303;48.896;13.342;2022-07-26T05:16:03;5.65;;;3.13;;
39612;SDS011;25303;48.896;13.342;2022-07-26T05:18:52;5.45;;;3.95;;
39612;SDS011;25303;48.896;13.342;2022-07-26T05:21:35;3.75;;;3.10;;
39612;SDS011;25303;48.896;13.342;2022-07-26T05:24:18;4.57;;;3.05;;
39612;SDS011;25303;48.896;13.342;2022-07-26T05:27:01;4.53;;;2.80;;
39612;SDS011;25303;48.896;13.342;2022-07-26T05:29:45;4.10;;;2.75;;
39612;SDS011;25303;48.896;13.342;2022-07-26T05:32:28;3.75;;;2.65;;
39612;SDS011;25303;48.896;13.342;2022-07-26T05:35:11;3.35;;;2.47;;
39612;SDS011;25303;48.896;13.342;2022-07-26T05:37:54;3.75;;;2.95;;
39612;SDS011;25303;48.896;13.342;2022-07-26T05:40:37;5.53;;;3.80;;
39612;SDS011;25303;48.896;13.342;2022-07-26T05:43:20;5.47;;;3.83;;
39612;SDS011;25303;48.896;13.342;2022-07-26T05:46:05;4.88;;;3.35;;
39612;SDS011;25303;48.896;13.342;2022-07-26T05:48:50;4.55;;;3.25;;
39612;SDS011;25303;48.896;13.342;2022-07-26T05:51:33;4.13;;;3.10;;
39612;SDS011;25303;48.896;13.342;2022-07-26T05:54:16;3.33;;;2.65;;
39612;SDS011;25303;48.896;13.342;2022-07-26T05:57:03;4.03;;;3.08;;
39612;SDS011;25303;48.896;13.342;2022-07-26T05:59:46;4.32;;;3.00;;
39612;SDS011;25303;48.896;13.342;2022-07-26T06:02:31;4.22;;;3.28;;
39612;SDS011;25303;48.896;13.342;2022-07-26T06:05:14;4.72;;;3.45;;
39612;SDS011;25303;48.896;13.342;2022-07-26T06:07:57;4.82;;;3.42;;
39612;SDS011;25303;48.896;13.342;2022-07-26T06:10:40;3.92;;;3.03;;
39612;SDS011;25303;48.896;13.342;2022-07-26T06:13:23;3.40;;;2.85;;
39612;SDS011;25303;48.896;13.342;2022-07-26T06:16:06;4.18;;;3.20;;
39612;SDS011;25303;48.896;13.342;2022-07-26T06:18:51;3.67;;;2.88;;
39612;SDS011;25303;48.896;13.342;2022-07-26T06:21:34;4.32;;;3.13;;
39612;SDS011;25303;48.896;13.342;2022-07-26T06:24:17;4.00;;;3.13;;
39612;SDS011;25303;48.896;13.342;2022-07-26T06:27:00;4.47;;;3.63;;
39612;SDS011;25303;48.896;13.342;2022-07-26T06:29:45;4.40;;;3.13;;
39612;SDS011;25303;48.896;13.342;2022-07-26T06:32:29;3.25;;;2.95;;
39612;SDS011;25303;48.896;13.342;2022-07-26T06:35:14;4.28;;;3.40;;
39612;SDS011;25303;48.896;13.342;2022-07-26T06:37:57;4.88;;;3.17;;
39612;SDS011;25303;48.896;13.342;2022-07-26T06:40:40;4.68;;;3.13;;
39612;SDS011;25303;48.896;13.342;2022-07-26T06:43:23;5.22;;;3.88;;
39612;SDS011;25303;48.896;13.342;2022-07-26T06:46:06;4.05;;;3.55;;
39612;SDS011;25303;48.896;13.342;2022-07-26T06:48:49;5.43;;;3.83;;
39612;SDS011;25303;48.896;13.342;2022-07-26T06:51:38;3.53;;;3.03;;
39612;SDS011;25303;48.896;13.342;2022-07-26T06:54:21;4.22;;;3.50;;
39612;SDS011;25303;48.896;13.342;2022-07-26T06:57:04;4.20;;;3.75;;
39612;SDS011;25303;48.896;13.342;2022-07-26T06:59:47;4.32;;;3.20;;
39612;SDS011;25303;48.896;13.342;2022-07-26T07:02:30;8.25;;;3.85;;
39612;SDS011;25303;48.896;13.342;2022-07-26T07:05:13;3.85;;;3.28;;
39612;SDS011;25303;48.896;13.342;2022-07-26T07:07:58;5.30;;;3.53;;
39612;SDS011;25303;48.896;13.342;2022-07-26T07:10:41;4.05;;;3.50;;
39612;SDS011;25303;48.896;13.342;2022-07-26T07:13:24;4.97;;;3.97;;
39612;SDS011;25303;48.896;13.342;2022-07-26T07:16:07;5.88;;;4.22;;
39612;SDS011;25303;48.896;13.342;2022-07-26T07:18:50;5.20;;;4.10;;
39612;SDS011;25303;48.896;13.342;2022-07-26T07:21:33;5.28;;;3.42;;
39612;SDS011;25303;48.896;13.342;2022-07-26T07:24:18;6.55;;;4.40;;
39612;SDS011;25303;48.896;13.342;2022-07-26T07:27:01;5.25;;;3.85;;
39612;SDS011;25303;48.896;13.342;2022-07-26T07:29:44;6.85;;;5.15;;
39612;SDS011;25303;48.896;13.342;2022-07-26T07:32:27;7.45;;;4.20;;
39612;SDS011;25303;48.896;13.342;2022-07-26T07:35:10;4.43;;;3.60;;
39612;SDS011;25303;48.896;13.342;2022-07-26T07:37:53;5.43;;;3.65;;
39612;SDS011;25303;48.896;13.342;2022-07-26T07:40:38;4.60;;;3.65;;
39612;SDS011;25303;48.896;13.342;2022-07-26T07:43:21;4.65;;;3.78;;
39612;SDS011;25303;48.896;13.342;2022-07-26T07:46:04;5.20;;;3.55;;
39612;SDS011;25303;48.896;13.342;2022-07-26T07:48:47;4.05;;;3.38;;
39612;SDS011;25303;48.896;13.342;2022-07-26T07:51:30;4.32;;;3.28;;
39612;SDS011;25303;48.896;13.342;2022-07-26T07:54:16;5.40;;;3.88;;
39612;SDS011;25303;48.896;13.342;2022-07-26T07:57:04;4.35;;;3.70;;
39612;SDS011;25303;48.896;13.342;2022-07-26T07:59:47;4.63;;;3.35;;
39612;SDS011;25303;48.896;13.342;2022-07-26T08:02:30;4.28;;;3.03;;
39612;SDS011;25303;48.896;13.342;2022-07-26T08:05:13;4.68;;;3.13;;
39612;SDS011;25303;48.896;13.342;2022-07-26T08:07:56;5.85;;;3.65;;
39612;SDS011;25303;48.896;13.342;2022-07-26T08:10:39;5.40;;;3.33;;
39612;SDS011;25303;48.896;13.342;2022-07-26T08:13:33;4.25;;;3.10;;
39612;SDS011;25303;48.896;13.342;2022-07-26T08:16:17;6.45;;;3.70;;
39612;SDS011;25303;48.896;13.342;2022-07-26T08:19:01;5.30;;;3.28;;
39612;SDS011;25303;48.896;13.342;2022-07-26T08:21:44;3.90;;;3.08;;
39612;SDS011;25303;48.896;13.342;2022-07-26T08:24:27;3.15;;;2.85;;
39612;SDS011;25303;48.896;13.342;2022-07-26T08:27:10;4.80;;;2.95;;
39612;SDS011;25303;48.896;13.342;2022-07-26T08:29:54;4.10;;;2.50;;
39612;SDS011;25303;48.896;13.342;2022-07-26T08:32:37;3.45;;;2.90;;
39612;SDS011;25303;48.896;13.342;2022-07-26T08:35:20;5.55;;;2.97;;
39612;SDS011;25303;48.896;13.342;2022-07-26T08:38:03;3.83;;;2.67;;
39612;SDS011;25303;48.896;13.342;2022-07-26T08:40:46;3.15;;;2.33;;
39612;SDS011;25303;48.896;13.342;2022-07-26T08:43:29;2.88;;;2.22;;
39612;SDS011;25303;48.896;13.342;2022-07-26T08:46:33;3.55;;;2.70;;
39612;SDS011;25303;48.896;13.342;2022-07-26T08:49:17;3.55;;;2.28;;
39612;SDS011;25303;48.896;13.342;2022-07-26T08:52:00;4.38;;;2.40;;
39612;SDS011;25303;48.896;13.342;2022-07-26T08:54:44;5.03;;;2.95;;
39612;SDS011;25303;48.896;13.342;2022-07-26T08:57:28;4.97;;;2.50;;
39612;SDS011;25303;48.896;13.342;2022-07-26T09:00:15;5.13;;;2.05;;
39612;SDS011;25303;48.896;13.342;2022-07-26T09:03:01;7.05;;;2.10;;
39612;SDS011;25303;48.896;13.342;2022-07-26T09:05:44;5.00;;;2.33;;
39612;SDS011;25303;48.896;13.342;2022-07-26T09:08:27;3.25;;;2.08;;
39612;SDS011;25303;48.896;13.342;2022-07-26T09:11:25;4.28;;;2.00;;
39612;SDS011;25303;48.896;13.342;2022-07-26T09:14:12;3.08;;;1.83;;
39612;SDS011;25303;48.896;13.342;2022-07-26T09:16:55;2.55;;;1.80;;
39612;SDS011;25303;48.896;13.342;2022-07-26T09:19:41;2.30;;;1.40;;
39612;SDS011;25303;48.896;13.342;2022-07-26T09:25:18;1.80;;;1.45;;
39612;SDS011;25303;48.896;13.342;2022-07-26T09:28:03;3.55;;;1.50;;
39612;SDS011;25303;48.896;13.342;2022-07-26T09:31:03;2.47;;;1.15;;
39612;SDS011;25303;48.896;13.342;2022-07-26T09:33:48;2.58;;;1.50;;
39612;SDS011;25303;48.896;13.342;2022-07-26T09:36:36;2.00;;;1.50;;
39612;SDS011;25303;48.896;13.342;2022-07-26T09:39:32;4.22;;;1.70;;
39612;SDS011;25303;48.896;13.342;2022-07-26T09:42:15;1.70;;;1.27;;
39612;SDS011;25303;48.896;13.342;2022-07-26T09:45:14;1.90;;;1.30;;
39612;SDS011;25303;48.896;13.342;2022-07-26T09:47:57;2.65;;;1.30;;
39612;SDS011;25303;48.896;13.342;2022-07-26T09:50:44;1.85;;;1.33;;
39612;SDS011;25303;48.896;13.342;2022-07-26T09:53:32;2.78;;;1.40;;
39612;SDS011;25303;48.896;13.342;2022-07-26T09:56:20;4.28;;;1.45;;
39612;SDS011;25303;48.896;13.342;2022-07-26T09:59:03;4.65;;;2.00;;
39612;SDS011;25303;48.896;13.342;2022-07-26T10:01:46;2.90;;;1.40;;
39612;SDS011;25303;48.896;13.342;2022-07-26T10:04:30;1.40;;;1.23;;
39612;SDS011;25303;48.896;13.342;2022-07-26T10:07:13;5.15;;;1.38;;
39612;SDS011;25303;48.896;13.342;2022-07-26T10:09:59;2.75;;;1.40;;
39612;SDS011;25303;48.896;13.342;2022-07-26T10:12:45;2.47;;;1.40;;
39612;SDS011;25303;48.896;13.342;2022-07-26T10:15:32;4.25;;;1.30;;
39612;SDS011;25303;48.896;13.342;2022-07-26T10:21:25;17.10;;;3.00;;
39612;SDS011;25303;48.896;13.342;2022-07-26T10:24:22;2.55;;;1.45;;
39612;SDS011;25303;48.896;13.342;2022-07-26T10:27:08;2.50;;;1.63;;
39612;SDS011;25303;48.896;13.342;2022-07-26T10:30:23;2.80;;;1.50;;
39612;SDS011;25303;48.896;13.342;2022-07-26T10:33:15;2.05;;;1.35;;
39612;SDS011;25303;48.896;13.342;2022-07-26T10:36:00;4.97;;;1.33;;
39612;SDS011;25303;48.896;13.342;2022-07-26T10:39:04;2.25;;;1.40;;
39612;SDS011;25303;48.896;13.342;2022-07-26T10:41:56;2.45;;;1.48;;
39612;SDS011;25303;48.896;13.342;2022-07-26T10:44:42;3.65;;;2.08;;
39612;SDS011;25303;48.896;13.342;2022-07-26T10:47:26;2.00;;;1.60;;
39612;SDS011;25303;48.896;13.342;2022-07-26T10:50:15;3.50;;;1.80;;
39612;SDS011;25303;48.896;13.342;2022-07-26T10:53:16;4.75;;;2.50;;
39612;SDS011;25303;48.896;13.342;2022-07-26T10:56:00;27.85;;;3.63;;
39612;SDS011;25303;48.896;13.342;2022-07-26T10:58:43;4.15;;;2.00;;
39612;SDS011;25303;48.896;13.342;2022-07-26T11:01:32;5.97;;;2.35;;
39612;SDS011;25303;48.896;13.342;2022-07-26T11:04:16;5.15;;;2.17;;
39612;SDS011;25303;48.896;13.342;2022-07-26T11:07:00;4.60;;;2.77;;
39612;SDS011;25303;48.896;13.342;2022-07-26T11:09:43;4.25;;;2.97;;
39612;SDS011;25303;48.896;13.342;2022-07-26T11:12:26;4.00;;;3.25;;
39612;SDS011;25303;48.896;13.342;2022-07-26T11:15:13;4.57;;;3.30;;
39612;SDS011;25303;48.896;13.342;2022-07-26T11:21:13;4.20;;;3.28;;
39612;SDS011;25303;48.896;13.342;2022-07-26T11:26:44;5.47;;;2.70;;
39612;SDS011;25303;48.896;13.342;2022-07-26T11:29:28;6.22;;;3.55;;
39612;SDS011;25303;48.896;13.342;2022-07-26T11:32:22;7.18;;;2.85;;
39612;SDS011;25303;48.896;13.342;2022-07-26T11:35:07;5.07;;;2.95;;
39612;SDS011;25303;48.896;13.342;2022-07-26T11:37:51;5.10;;;3.00;;
39612;SDS011;25303;48.896;13.342;2022-07-26T11:40:49;4.25;;;2.67;;
39612;SDS011;25303;48.896;13.342;2022-07-26T11:43:35;4.32;;;2.67;;
39612;SDS011;25303;48.896;13.342;2022-07-26T11:46:19;5.53;;;2.15;;
39612;SDS011;25303;48.896;13.342;2022-07-26T11:49:02;3.45;;;2.00;;
39612;SDS011;25303;48.896;13.342;2022-07-26T11:51:50;6.15;;;2.20;;
39612;SDS011;25303;48.896;13.342;2022-07-26T11:54:42;4.18;;;2.42;;
39612;SDS011;25303;48.896;13.342;2022-07-26T11:57:27;5.30;;;2.20;;
39612;SDS011;25303;48.896;13.342;2022-07-26T12:00:12;3.85;;;1.80;;
39612;SDS011;25303;48.896;13.342;2022-07-26T12:02:57;3.03;;;1.88;;
39612;SDS011;25303;48.896;13.342;2022-07-26T12:05:41;2.70;;;1.50;;
39612;SDS011;25303;48.896;13.342;2022-07-26T12:08:34;2.25;;;1.50;;
39612;SDS011;25303;48.896;13.342;2022-07-26T12:11:21;3.63;;;1.23;;
39612;SDS011;25303;48.896;13.342;2022-07-26T12:14:07;3.95;;;1.60;;
39612;SDS011;25303;48.896;13.342;2022-07-26T12:17:08;2.08;;;1.63;;
39612;SDS011;25303;48.896;13.342;2022-07-26T12:19:53;3.27;;;1.90;;
39612;SDS011;25303;48.896;13.342;2022-07-26T12:22:37;4.22;;;1.60;;
39612;SDS011;25303;48.896;13.342;2022-07-26T12:25:26;4.00;;;1.80;;
39612;SDS011;25303;48.896;13.342;2022-07-26T12:28:11;2.53;;;1.65;;
39612;SDS011;25303;48.896;13.342;2022-07-26T12:30:54;3.78;;;1.55;;
39612;SDS011;25303;48.896;13.342;2022-07-26T12:33:46;2.92;;;1.52;;
39612;SDS011;25303;48.896;13.342;2022-07-26T12:36:31;2.42;;;1.70;;
39612;SDS011;25303;48.896;13.342;2022-07-26T12:39:17;2.85;;;1.83;;
39612;SDS011;25303;48.896;13.342;2022-07-26T12:45:15;4.00;;;2.88;;
39612;SDS011;25303;48.896;13.342;2022-07-26T12:48:00;3.25;;;2.10;;
39612;SDS011;25303;48.896;13.342;2022-07-26T12:50:45;4.13;;;2.03;;
39612;SDS011;25303;48.896;13.342;2022-07-26T12:53:30;2.97;;;2.13;;
39612;SDS011;25303;48.896;13.342;2022-07-26T12:56:18;2.80;;;1.63;;
39612;SDS011;25303;48.896;13.342;2022-07-26T12:59:03;3.72;;;2.00;;
39612;SDS011;25303;48.896;13.342;2022-07-26T13:01:46;2.88;;;2.08;;
39612;SDS011;25303;48.896;13.342;2022-07-26T13:04:30;4.47;;;1.97;;
39612;SDS011;25303;48.896;13.342;2022-07-26T13:07:14;2.97;;;1.58;;
39612;SDS011;25303;48.896;13.342;2022-07-26T13:09:58;3.00;;;1.52;;
39612;SDS011;25303;48.896;13.342;2022-07-26T13:13:02;2.97;;;1.60;;
39612;SDS011;25303;48.896;13.342;2022-07-26T13:15:49;4.03;;;1.60;;
39612;SDS011;25303;48.896;13.342;2022-07-26T13:18:33;2.58;;;1.50;;
39612;SDS011;25303;48.896;13.342;2022-07-26T13:21:17;4.40;;;1.77;;
39612;SDS011;25303;48.896;13.342;2022-07-26T13:24:02;2.15;;;1.52;;
39612;SDS011;25303;48.896;13.342;2022-07-26T13:26:52;5.22;;;2.10;;
39612;SDS011;25303;48.896;13.342;2022-07-26T13:29:51;4.38;;;1.70;;
39612;SDS011;25303;48.896;13.342;2022-07-26T13:32:36;3.25;;;1.30;;
39612;SDS011;25303;48.896;13.342;2022-07-26T13:35:20;3.00;;;1.40;;
39612;SDS011;25303;48.896;13.342;2022-07-26T13:38:07;2.10;;;1.25;;
39612;SDS011;25303;48.896;13.342;2022-07-26T13:40:51;1.67;;;1.30;;
39612;SDS011;25303;48.896;13.342;2022-07-26T13:43:40;1.80;;;1.33;;
39612;SDS011;25303;48.896;13.342;2022-07-26T13:46:32;3.55;;;1.48;;
39612;SDS011;25303;48.896;13.342;2022-07-26T13:49:18;2.35;;;1.42;;
39612;SDS011;25303;48.896;13.342;2022-07-26T13:52:02;2.33;;;1.08;;
39612;SDS011;25303;48.896;13.342;2022-07-26T13:54:45;2.92;;;1.30;;
39612;SDS011;25303;48.896;13.342;2022-07-26T13:57:29;1.58;;;1.13;;
39612;SDS011;25303;48.896;13.342;2022-07-26T14:00:32;1.13;;;0.95;;
39612;SDS011;25303;48.896;13.342;2022-07-26T14:03:15;1.20;;;0.90;;
39612;SDS011;25303;48.896;13.342;2022-07-26T14:05:59;1.85;;;1.00;;
39612;SDS011;25303;48.896;13.342;2022-07-26T14:08:42;1.30;;;0.90;;
39612;SDS011;25303;48.896;13.342;2022-07-26T14:11:26;1.23;;;0.90;;
39612;SDS011;25303;48.896;13.342;2022-07-26T14:14:09;1.85;;;0.90;;
39612;SDS011;25303;48.896;13.342;2022-07-26T14:16:53;3.42;;;1.30;;
39612;SDS011;25303;48.896;13.342;2022-07-26T14:19:36;1.98;;;1.27;;
39612;SDS011;25303;48.896;13.342;2022-07-26T14:22:21;2.65;;;1.10;;
39612;SDS011;25303;48.896;13.342;2022-07-26T14:25:04;4.20;;;1.00;;
39612;SDS011;25303;48.896;13.342;2022-07-26T14:27:48;3.10;;;1.65;;
39612;SDS011;25303;48.896;13.342;2022-07-26T14:30:32;2.35;;;1.20;;
39612;SDS011;25303;48.896;13.342;2022-07-26T14:33:16;3.10;;;1.40;;
39612;SDS011;25303;48.896;13.342;2022-07-26T14:35:59;3.20;;;1.10;;
39612;SDS011;25303;48.896;13.342;2022-07-26T14:38:43;1.60;;;1.00;;
39612;SDS011;25303;48.896;13.342;2022-07-26T14:41:28;1.05;;;0.75;;
39612;SDS011;25303;48.896;13.342;2022-07-26T14:44:11;2.08;;;1.10;;
39612;SDS011;25303;48.896;13.342;2022-07-26T14:46:54;1.30;;;0.70;;
39612;SDS011;25303;48.896;13.342;2022-07-26T14:49:37;1.52;;;0.93;;
39612;SDS011;25303;48.896;13.342;2022-07-26T14:52:20;1.52;;;0.90;;
39612;SDS011;25303;48.896;13.342;2022-07-26T14:55:06;2.05;;;0.90;;
39612;SDS011;25303;48.896;13.342;2022-07-26T14:57:50;2.80;;;0.93;;
39612;SDS011;25303;48.896;13.342;2022-07-26T15:00:33;2.25;;;1.05;;
39612;SDS011;25303;48.896;13.342;2022-07-26T15:03:16;2.47;;;0.98;;
39612;SDS011;25303;48.896;13.342;2022-07-26T15:05:59;2.10;;;1.00;;
39612;SDS011;25303;48.896;13.342;2022-07-26T15:08:42;1.92;;;0.90;;
39612;SDS011;25303;48.896;13.342;2022-07-26T15:11:27;1.30;;;0.90;;
39612;SDS011;25303;48.896;13.342;2022-07-26T15:16:54;1.63;;;0.88;;
39612;SDS011;25303;48.896;13.342;2022-07-26T15:19:37;2.60;;;0.85;;
39612;SDS011;25303;48.896;13.342;2022-07-26T15:22:20;1.92;;;1.00;;
39612;SDS011;25303;48.896;13.342;2022-07-26T15:25:04;1.88;;;0.85;;
39612;SDS011;25303;48.896;13.342;2022-07-26T15:27:49;1.05;;;0.70;;
39612;SDS011;25303;48.896;13.342;2022-07-26T15:30:32;2.08;;;0.90;;
39612;SDS011;25303;48.896;13.342;2022-07-26T15:33:15;2.50;;;0.70;;
39612;SDS011;25303;48.896;13.342;2022-07-26T15:36:00;0.80;;;0.65;;
39612;SDS011;25303;48.896;13.342;2022-07-26T15:38:46;1.75;;;0.85;;
39612;SDS011;25303;48.896;13.342;2022-07-26T15:41:29;1.30;;;0.75;;
39612;SDS011;25303;48.896;13.342;2022-07-26T15:44:15;1.42;;;0.80;;
39612;SDS011;25303;48.896;13.342;2022-07-26T15:47:03;3.10;;;0.80;;
39612;SDS011;25303;48.896;13.342;2022-07-26T15:49:46;1.30;;;0.77;;
39612;SDS011;25303;48.896;13.342;2022-07-26T15:52:30;1.80;;;0.88;;
39612;SDS011;25303;48.896;13.342;2022-07-26T15:55:13;3.05;;;0.88;;
39612;SDS011;25303;48.896;13.342;2022-07-26T15:57:58;2.22;;;0.90;;
39612;SDS011;25303;48.896;13.342;2022-07-26T16:00:43;2.70;;;0.93;;
39612;SDS011;25303;48.896;13.342;2022-07-26T16:06:09;0.80;;;0.65;;
39612;SDS011;25303;48.896;13.342;2022-07-26T16:08:52;2.97;;;0.75;;
39612;SDS011;25303;48.896;13.342;2022-07-26T16:11:55;1.83;;;0.88;;
39612;SDS011;25303;48.896;13.342;2022-07-26T16:14:44;3.15;;;0.90;;
39612;SDS011;25303;48.896;13.342;2022-07-26T16:17:29;1.40;;;0.70;;
39612;SDS011;25303;48.896;13.342;2022-07-26T16:22:56;1.33;;;0.90;;
39612;SDS011;25303;48.896;13.342;2022-07-26T16:25:40;1.30;;;0.80;;
39612;SDS011;25303;48.896;13.342;2022-07-26T16:28:23;1.33;;;0.70;;
39612;SDS011;25303;48.896;13.342;2022-07-26T16:31:06;2.72;;;0.70;;
39612;SDS011;25303;48.896;13.342;2022-07-26T16:33:51;2.33;;;0.90;;
39612;SDS011;25303;48.896;13.342;2022-07-26T16:39:18;1.15;;;0.80;;
39612;SDS011;25303;48.896;13.342;2022-07-26T16:42:01;0.70;;;0.65;;
39612;SDS011;25303;48.896;13.342;2022-07-26T16:44:48;3.17;;;0.80;;
39612;SDS011;25303;48.896;13.342;2022-07-26T16:47:32;1.00;;;0.70;;